Time;durP1;ratioP1;P1;durP2;ratioP2;P2;SDS_P1;SDS_P2;PMS_P1;PMS_P2;Temp;Humidity;BMP_temperature;BMP_pressure;BME280_temperature;BME280_humidity;BME280_pressure;Samples;Min_cycle;Max_cycle;Signal;HPM_P1;HPM_P2
2021/05/19 00:01:51;;;;;;;17.20;11.83;;;8.40;99.90;;;;;;5037312;28;20462;-82
2021/05/19 00:04:18;;;;;;;19.20;12.30;;;8.30;99.90;;;;;;5038085;28;20866;-82
2021/05/19 00:06:44;;;;;;;20.67;12.73;;;8.30;99.90;;;;;;5037022;28;20477;-82
2021/05/19 00:09:12;;;;;;;16.90;12.30;;;8.30;99.90;;;;;;5037547;28;20452;-82
2021/05/19 00:11:40;;;;;;;17.40;12.10;;;8.30;99.90;;;;;;5036363;28;20449;-82
2021/05/19 00:14:08;;;;;;;22.70;12.00;;;8.30;99.90;;;;;;5037884;28;20445;-82
2021/05/19 00:16:35;;;;;;;19.33;13.43;;;8.20;99.90;;;;;;5039544;28;20472;-81
2021/05/19 00:19:01;;;;;;;19.63;13.23;;;8.20;99.90;;;;;;5036381;28;20457;-81
2021/05/19 00:21:28;;;;;;;16.67;11.47;;;8.20;99.90;;;;;;5035752;28;20510;-81
2021/05/19 00:23:55;;;;;;;17.00;12.17;;;8.10;99.90;;;;;;5036463;28;20622;-81
2021/05/19 00:26:22;;;;;;;20.30;12.40;;;8.10;99.90;;;;;;5036554;28;20558;-80
2021/05/19 00:28:51;;;;;;;20.57;13.20;;;8.10;99.90;;;;;;5036552;28;20874;-80
2021/05/19 00:31:18;;;;;;;18.97;13.03;;;8.10;99.90;;;;;;5035186;28;20895;-81
2021/05/19 00:33:45;;;;;;;22.80;15.23;;;8.10;99.90;;;;;;5035840;28;20949;-81
2021/05/19 00:36:11;;;;;;;17.43;12.63;;;8.00;99.90;;;;;;5036584;28;20475;-81
2021/05/19 00:38:39;;;;;;;21.13;12.70;;;8.10;99.90;;;;;;5035360;28;20809;-81
2021/05/19 00:41:07;;;;;;;20.13;13.63;;;8.10;99.90;;;;;;5035288;28;20514;-81
2021/05/19 00:43:33;;;;;;;23.20;14.07;;;8.10;99.90;;;;;;5028164;28;20485;-81
2021/05/19 00:46:00;;;;;;;20.63;15.10;;;8.10;99.90;;;;;;5036009;28;20477;-81
2021/05/19 00:48:26;;;;;;;19.97;13.47;;;8.10;99.90;;;;;;5035360;28;20854;-81
2021/05/19 00:50:52;;;;;;;21.70;15.10;;;8.10;99.90;;;;;;5035160;28;20448;-81
2021/05/19 00:53:18;;;;;;;21.17;13.70;;;8.10;99.90;;;;;;5034537;28;20445;-82
2021/05/19 00:55:46;;;;;;;20.03;13.57;;;8.00;99.90;;;;;;5035461;28;20527;-81
2021/05/19 00:58:13;;;;;;;20.03;13.47;;;8.10;99.90;;;;;;5035820;28;20464;-81
2021/05/19 01:00:40;;;;;;;20.27;13.70;;;8.10;99.90;;;;;;5035100;28;20951;-81
2021/05/19 01:03:07;;;;;;;22.20;13.60;;;8.00;99.90;;;;;;5035456;28;20495;-81
2021/05/19 01:05:37;;;;;;;18.97;12.80;;;8.10;99.90;;;;;;5036388;28;20463;-82
2021/05/19 01:10:49;;;;;;;21.83;13.70;;;8.10;99.90;;;;;;5034880;28;20451;-79
2021/05/19 01:13:16;;;;;;;19.07;13.07;;;8.00;99.90;;;;;;5037749;28;20448;-80
2021/05/19 01:15:43;;;;;;;21.90;14.30;;;8.00;99.90;;;;;;5040040;28;20476;-80
2021/05/19 01:18:09;;;;;;;19.47;13.50;;;8.00;99.90;;;;;;5035863;28;20452;-81
2021/05/19 01:20:37;;;;;;;21.67;13.70;;;8.00;99.90;;;;;;5036376;28;20887;-82
2021/05/19 01:23:06;;;;;;;22.90;14.53;;;8.00;99.90;;;;;;5034796;28;20480;-81
2021/05/19 01:25:33;;;;;;;23.83;14.40;;;8.00;99.90;;;;;;5036175;28;20472;-82
2021/05/19 01:28:00;;;;;;;21.77;13.80;;;8.00;99.90;;;;;;5035636;28;20465;-81
2021/05/19 01:30:28;;;;;;;24.57;15.10;;;8.00;99.90;;;;;;5035907;28;20884;-81
2021/05/19 01:32:54;;;;;;;26.30;18.07;;;8.10;99.90;;;;;;5035021;28;20449;-82
2021/05/19 01:35:21;;;;;;;22.27;14.70;;;8.20;99.90;;;;;;5035028;28;20460;-82
2021/05/19 01:37:48;;;;;;;24.37;16.43;;;8.20;99.90;;;;;;5035628;28;20546;-82
2021/05/19 01:40:18;;;;;;;22.30;15.10;;;8.20;99.90;;;;;;5035009;28;20964;-82
2021/05/19 01:42:46;;;;;;;23.40;15.27;;;8.20;99.90;;;;;;5034923;28;20495;-82
2021/05/19 01:45:14;;;;;;;21.23;15.60;;;8.10;99.90;;;;;;5034520;28;20463;-81
2021/05/19 01:47:43;;;;;;;21.17;13.93;;;8.10;99.90;;;;;;5034757;28;20973;-82
2021/05/19 01:50:12;;;;;;;25.70;15.80;;;8.00;99.90;;;;;;5034407;28;20448;-81
2021/05/19 01:52:39;;;;;;;24.17;15.50;;;8.00;99.90;;;;;;5033108;28;20540;-80
2021/05/19 01:55:07;;;;;;;25.40;17.37;;;8.00;99.90;;;;;;5033847;28;20539;-81
2021/05/19 01:57:34;;;;;;;22.20;15.33;;;8.00;99.90;;;;;;5034781;28;20514;-81
2021/05/19 02:00:01;;;;;;;24.93;14.80;;;8.00;99.90;;;;;;4998148;28;20835;-81
2021/05/19 02:02:28;;;;;;;28.10;15.30;;;7.90;99.90;;;;;;5022513;28;20487;-81
2021/05/19 02:04:55;;;;;;;24.97;15.67;;;7.90;99.90;;;;;;5037034;28;20449;-81
2021/05/19 02:07:21;;;;;;;22.60;16.30;;;7.90;99.90;;;;;;5034363;28;20484;-80
2021/05/19 02:09:48;;;;;;;21.00;15.43;;;7.90;99.90;;;;;;5034942;28;20467;-80
2021/05/19 02:12:15;;;;;;;21.67;15.00;;;7.90;99.90;;;;;;5034861;28;20453;-81
2021/05/19 02:14:42;;;;;;;22.70;15.40;;;7.80;99.90;;;;;;5045300;28;20448;-80
2021/05/19 02:17:09;;;;;;;25.07;16.57;;;7.70;99.90;;;;;;5040603;28;20526;-81
2021/05/19 02:19:36;;;;;;;23.00;15.60;;;7.70;99.90;;;;;;5042332;28;20453;-82
2021/05/19 02:22:03;;;;;;;22.77;14.63;;;7.70;99.90;;;;;;5044775;28;20524;-82
2021/05/19 02:24:29;;;;;;;25.03;16.30;;;7.60;99.90;;;;;;5042389;28;20475;-82
2021/05/19 02:26:56;;;;;;;24.03;16.40;;;7.60;99.90;;;;;;5034724;28;20479;-81
2021/05/19 02:29:22;;;;;;;27.50;15.30;;;7.60;99.90;;;;;;5034780;28;20463;-81
2021/05/19 02:31:50;;;;;;;28.10;18.30;;;7.60;99.90;;;;;;5033812;28;20453;-81
2021/05/19 02:34:16;;;;;;;23.37;14.90;;;7.60;99.90;;;;;;5035078;28;20445;-82
2021/05/19 02:36:43;;;;;;;27.27;17.90;;;7.60;99.90;;;;;;5034226;28;20473;-82
2021/05/19 02:39:11;;;;;;;28.40;17.93;;;7.60;99.90;;;;;;5033589;28;20449;-82
2021/05/19 02:41:38;;;;;;;25.50;16.53;;;7.50;99.90;;;;;;5033331;28;20452;-82
2021/05/19 02:44:05;;;;;;;25.70;17.77;;;7.50;99.90;;;;;;5033856;28;20485;-82
2021/05/19 02:46:31;;;;;;;24.10;17.13;;;7.50;99.90;;;;;;5034278;28;20475;-81
2021/05/19 02:49:02;;;;;;;31.40;21.57;;;7.50;99.90;;;;;;5033831;28;20459;-82
2021/05/19 02:51:29;;;;;;;31.53;19.40;;;7.50;99.90;;;;;;5033399;28;21054;-82
2021/05/19 02:53:55;;;;;;;28.70;18.20;;;7.50;99.90;;;;;;5033618;28;20513;-82
2021/05/19 02:56:22;;;;;;;27.93;19.13;;;7.60;99.90;;;;;;5032869;28;21055;-82
2021/05/19 02:58:48;;;;;;;28.10;17.37;;;7.60;99.90;;;;;;5033604;28;20456;-82
2021/05/19 03:01:15;;;;;;;30.00;17.70;;;7.60;99.90;;;;;;5032601;28;20463;-81
2021/05/19 03:03:41;;;;;;;28.07;19.50;;;7.70;99.90;;;;;;5033142;28;20904;-81
2021/05/19 03:06:09;;;;;;;27.33;18.37;;;7.60;99.90;;;;;;5033864;28;20503;-81
2021/05/19 03:08:35;;;;;;;29.30;19.33;;;7.60;99.90;;;;;;5033362;28;20457;-82
2021/05/19 03:11:02;;;;;;;28.10;17.27;;;7.60;99.90;;;;;;5033760;28;20981;-80
2021/05/19 03:13:29;;;;;;;31.40;19.23;;;7.60;99.90;;;;;;5033487;28;20456;-82
2021/05/19 03:15:55;;;;;;;27.60;17.90;;;7.50;99.90;;;;;;5033997;28;20563;-81
2021/05/19 03:18:22;;;;;;;29.77;18.87;;;7.60;99.90;;;;;;5033559;28;20456;-82
2021/05/19 03:20:48;;;;;;;28.67;18.43;;;7.60;99.90;;;;;;5033153;28;20511;-82
2021/05/19 03:23:15;;;;;;;34.40;21.10;;;7.60;99.90;;;;;;5032637;28;20491;-82
2021/05/19 03:25:42;;;;;;;32.00;22.23;;;7.60;99.90;;;;;;5035946;28;20530;-82
2021/05/19 03:28:08;;;;;;;33.10;22.17;;;7.80;99.90;;;;;;5037154;28;20452;-82
2021/05/19 03:30:35;;;;;;;40.87;22.50;;;7.90;99.90;;;;;;5037454;28;20461;-82
2021/05/19 03:33:02;;;;;;;35.70;21.17;;;8.00;99.90;;;;;;5036585;28;20471;-82
2021/05/19 03:35:28;;;;;;;30.20;21.40;;;8.20;99.90;;;;;;5036643;28;20992;-81
2021/05/19 03:37:55;;;;;;;40.67;22.40;;;8.20;99.90;;;;;;5037327;28;20448;-82
2021/05/19 03:40:22;;;;;;;38.70;23.13;;;8.40;99.90;;;;;;5036850;28;20456;-82
2021/05/19 03:42:48;;;;;;;34.27;23.57;;;8.40;99.90;;;;;;5036869;28;20483;-81
2021/05/19 03:45:17;;;;;;;32.73;21.53;;;8.50;99.90;;;;;;5037180;28;20479;-82
2021/05/19 03:47:45;;;;;;;34.80;23.63;;;8.60;99.90;;;;;;5039225;28;20831;-82
2021/05/19 03:50:12;;;;;;;33.50;23.07;;;8.60;99.90;;;;;;5037038;28;20457;-82
2021/05/19 03:52:38;;;;;;;36.23;23.70;;;8.60;99.90;;;;;;5036283;28;20459;-82
2021/05/19 03:55:08;;;;;;;36.03;22.93;;;8.60;99.90;;;;;;5037217;28;20449;-82
2021/05/19 03:57:36;;;;;;;31.03;20.80;;;8.60;99.90;;;;;;5056614;23;20488;-85
2021/05/19 04:00:03;;;;;;;40.23;22.87;;;8.70;99.90;;;;;;5042711;28;20540;-86
2021/05/19 04:02:29;;;;;;;34.00;23.33;;;8.90;99.90;;;;;;5042355;28;20483;-85
2021/05/19 04:04:55;;;;;;;47.10;28.50;;;9.00;99.90;;;;;;5043859;28;20456;-84
2021/05/19 04:07:22;;;;;;;37.67;24.63;;;9.10;99.90;;;;;;5043922;28;20481;-86
2021/05/19 04:09:48;;;;;;;37.00;24.57;;;9.20;99.90;;;;;;5044515;28;20483;-85
2021/05/19 04:12:14;;;;;;;37.23;25.27;;;9.20;99.90;;;;;;5043030;28;20444;-85
2021/05/19 04:14:42;;;;;;;40.63;24.93;;;9.20;99.90;;;;;;5042826;28;20547;-86
2021/05/19 04:17:08;;;;;;;35.23;24.90;;;9.20;99.90;;;;;;5043512;28;20472;-84
2021/05/19 04:19:34;;;;;;;44.53;28.37;;;9.20;99.90;;;;;;5043196;28;20459;-85
2021/05/19 04:22:01;;;;;;;39.60;25.80;;;9.20;99.90;;;;;;5042717;28;20803;-84
2021/05/19 04:24:27;;;;;;;41.80;27.53;;;9.40;99.90;;;;;;5042132;28;20484;-85
2021/05/19 04:26:53;;;;;;;35.70;25.27;;;9.40;99.90;;;;;;5042612;28;20680;-85
2021/05/19 04:29:20;;;;;;;38.57;24.57;;;9.30;99.90;;;;;;5043502;28;20452;-85
2021/05/19 04:31:47;;;;;;;38.37;22.97;;;9.30;99.90;;;;;;5039155;28;20456;-86
2021/05/19 04:34:13;;;;;;;33.63;21.67;;;9.20;99.90;;;;;;5037620;28;20528;-85
2021/05/19 04:36:39;;;;;;;38.97;26.67;;;9.30;99.90;;;;;;5035678;28;20453;-86
2021/05/19 04:39:07;;;;;;;38.17;24.30;;;9.30;99.90;;;;;;5036591;28;20456;-86
2021/05/19 04:41:33;;;;;;;40.33;24.00;;;9.40;99.90;;;;;;5038679;28;20457;-85
2021/05/19 04:44:00;;;;;;;32.67;21.70;;;9.30;99.90;;;;;;5037769;28;20560;-85
2021/05/19 04:46:26;;;;;;;33.10;22.47;;;9.50;99.90;;;;;;5037888;28;20469;-86
2021/05/19 04:48:58;;;;;;;29.13;20.60;;;9.50;99.90;;;;;;5037806;28;20445;-86
2021/05/19 04:51:24;;;;;;;32.87;22.87;;;9.60;99.90;;;;;;5036790;28;20484;-83
2021/05/19 04:53:51;;;;;;;36.00;23.23;;;9.80;99.90;;;;;;5037558;28;20457;-84
2021/05/19 04:56:17;;;;;;;26.97;18.47;;;9.90;99.90;;;;;;5037717;28;20486;-86
2021/05/19 04:58:43;;;;;;;30.20;21.13;;;10.10;99.90;;;;;;5037374;28;20445;-86
2021/05/19 05:01:10;;;;;;;30.17;19.83;;;10.10;99.90;;;;;;5037670;28;20452;-85
2021/05/19 05:03:36;;;;;;;27.40;19.03;;;10.20;99.90;;;;;;5037993;28;20518;-86
2021/05/19 05:06:03;;;;;;;29.20;19.90;;;10.20;99.90;;;;;;5038192;28;21079;-84
2021/05/19 05:08:30;;;;;;;25.30;18.03;;;10.20;99.90;;;;;;5037819;28;20487;-87
2021/05/19 05:10:56;;;;;;;25.43;17.30;;;10.10;99.90;;;;;;5038056;28;20868;-85
2021/05/19 05:13:23;;;;;;;23.50;15.80;;;10.10;99.90;;;;;;5036899;28;20468;-85
2021/05/19 05:15:49;;;;;;;26.07;18.30;;;10.10;99.90;;;;;;5038503;28;20452;-84
2021/05/19 05:18:16;;;;;;;22.00;16.37;;;10.10;99.90;;;;;;5037880;28;20483;-85
2021/05/19 05:20:42;;;;;;;24.93;15.80;;;10.10;99.90;;;;;;5038242;28;20527;-85
2021/05/19 05:23:10;;;;;;;24.17;16.30;;;10.10;99.90;;;;;;5038466;28;20484;-87
2021/05/19 05:25:36;;;;;;;22.40;14.90;;;10.00;99.90;;;;;;5038684;28;20441;-85
2021/05/19 05:28:02;;;;;;;21.60;15.37;;;10.10;99.90;;;;;;5042290;28;20980;-84
2021/05/19 05:30:29;;;;;;;24.13;16.70;;;10.20;99.90;;;;;;5039051;28;20463;-86
2021/05/19 05:32:55;;;;;;;21.17;16.20;;;10.50;99.90;;;;;;5037769;28;20540;-85
2021/05/19 05:35:22;;;;;;;22.37;15.30;;;10.70;99.90;;;;;;5038377;28;20871;-86
2021/05/19 05:37:48;;;;;;;22.33;15.37;;;10.90;99.90;;;;;;5038548;28;20481;-83
2021/05/19 05:40:16;;;;;;;19.93;13.90;;;11.00;99.90;;;;;;5037679;28;21035;-86
2021/05/19 05:42:42;;;;;;;18.50;13.37;;;11.00;99.90;;;;;;5038115;28;20478;-84
2021/05/19 05:45:09;;;;;;;17.00;11.80;;;10.90;99.90;;;;;;5037876;28;20533;-84
2021/05/19 05:47:36;;;;;;;19.93;13.07;;;10.80;99.90;;;;;;5037282;28;20579;-85
2021/05/19 05:50:03;;;;;;;19.93;12.70;;;10.80;99.90;;;;;;5035793;28;20538;-86
2021/05/19 05:52:30;;;;;;;17.17;12.80;;;10.90;99.90;;;;;;5023615;28;20456;-87
2021/05/19 05:54:57;;;;;;;17.10;12.90;;;11.00;99.90;;;;;;5017038;28;20458;-87
2021/05/19 05:57:24;;;;;;;15.67;12.33;;;11.10;99.90;;;;;;5021680;28;20572;-87
2021/05/19 05:59:50;;;;;;;21.33;13.90;;;11.40;99.90;;;;;;5036308;28;20453;-85
2021/05/19 06:02:17;;;;;;;18.60;11.40;;;11.50;99.90;;;;;;5035089;28;20449;-86
2021/05/19 06:04:43;;;;;;;15.87;10.70;;;11.60;99.90;;;;;;5036465;28;20457;-86
2021/05/19 06:07:09;;;;;;;17.03;11.10;;;11.70;99.90;;;;;;5035902;28;20457;-87
2021/05/19 06:09:35;;;;;;;14.77;10.33;;;11.80;99.90;;;;;;5036930;28;20459;-84
2021/05/19 06:12:02;;;;;;;17.47;11.17;;;12.00;99.90;;;;;;5038044;28;21035;-85
2021/05/19 06:14:29;;;;;;;21.53;11.50;;;12.10;99.90;;;;;;5036478;28;20451;-85
2021/05/19 06:16:56;;;;;;;16.77;11.77;;;12.40;99.90;;;;;;5036484;28;20556;-86
2021/05/19 06:19:22;;;;;;;18.40;10.00;;;12.50;99.90;;;;;;5036347;28;20461;-85
2021/05/19 06:21:49;;;;;;;16.67;9.10;;;12.60;99.90;;;;;;5036317;28;20524;-83
2021/05/19 06:24:15;;;;;;;20.77;9.53;;;12.70;99.90;;;;;;5036521;28;20533;-87
2021/05/19 06:26:41;;;;;;;19.10;9.83;;;12.50;99.90;;;;;;5037927;28;20460;-86
2021/05/19 06:29:07;;;;;;;17.57;10.60;;;12.60;99.90;;;;;;5037922;28;20448;-85
2021/05/19 06:31:35;;;;;;;14.93;8.90;;;12.60;99.90;;;;;;5037853;28;20653;-86
2021/05/19 06:34:01;;;;;;;16.67;9.00;;;12.70;99.90;;;;;;5049485;28;20476;-82
2021/05/19 06:36:27;;;;;;;17.90;9.60;;;13.00;99.90;;;;;;5051039;28;20548;-85
2021/05/19 06:38:54;;;;;;;15.97;9.60;;;13.10;99.90;;;;;;5052108;28;20463;-86
2021/05/19 06:41:20;;;;;;;17.00;9.70;;;13.30;99.90;;;;;;5051797;28;20556;-85
2021/05/19 06:43:46;;;;;;;15.53;7.73;;;13.60;99.90;;;;;;5051322;28;20540;-87
2021/05/19 06:46:12;;;;;;;18.00;8.40;;;13.70;99.90;;;;;;5052058;28;20496;-86
2021/05/19 06:48:40;;;;;;;16.97;7.80;;;13.80;99.90;;;;;;5051141;28;20437;-87
2021/05/19 06:51:06;;;;;;;17.13;8.00;;;13.90;99.90;;;;;;5038560;28;20496;-86
2021/05/19 06:53:32;;;;;;;18.67;8.47;;;14.10;99.90;;;;;;5036389;28;20452;-87
2021/05/19 06:55:59;;;;;;;16.07;7.70;;;14.00;99.90;;;;;;5033710;28;20584;-85
2021/05/19 06:58:26;;;;;;;17.63;7.33;;;14.30;99.90;;;;;;5037743;28;20448;-85
2021/05/19 07:00:53;;;;;;;16.30;8.47;;;14.60;99.90;;;;;;5039051;28;20449;-85
2021/05/19 07:03:20;;;;;;;13.83;6.90;;;14.60;99.90;;;;;;5037964;28;20488;-85
2021/05/19 07:05:47;;;;;;;19.13;8.43;;;14.60;99.90;;;;;;5038173;28;20587;-85
2021/05/19 07:08:13;;;;;;;18.33;8.73;;;14.80;99.90;;;;;;5037418;28;20459;-85
2021/05/19 07:10:39;;;;;;;15.63;7.70;;;14.60;99.90;;;;;;5038598;28;20531;-86
2021/05/19 07:13:06;;;;;;;14.97;7.93;;;14.50;99.90;;;;;;5034635;28;20456;-86
2021/05/19 07:15:35;;;;;;;16.10;7.00;;;14.70;99.90;;;;;;5037584;28;20459;-85
2021/05/19 07:18:06;;;;;;;15.97;7.50;;;14.70;99.90;;;;;;5036475;28;20449;-85
2021/05/19 07:20:32;;;;;;;19.40;6.90;;;14.50;99.90;;;;;;5030348;28;20453;-84
2021/05/19 07:22:59;;;;;;;17.23;6.80;;;14.60;99.90;;;;;;5029516;28;20483;-84
2021/05/19 07:25:26;;;;;;;16.70;7.93;;;14.70;99.90;;;;;;5029289;28;20456;-82
2021/05/19 07:27:52;;;;;;;18.87;7.00;;;14.30;99.90;;;;;;5035585;28;20602;-85
2021/05/19 07:30:19;;;;;;;14.57;6.77;;;14.40;99.90;;;;;;5035391;28;20527;-82
2021/05/19 07:32:45;;;;;;;15.60;7.20;;;14.00;99.90;;;;;;5033879;28;20460;-83
2021/05/19 07:35:12;;;;;;;16.47;7.10;;;14.10;99.90;;;;;;5033467;28;20437;-82
2021/05/19 07:37:39;;;;;;;17.80;7.37;;;14.00;99.90;;;;;;5034755;28;20507;-83
2021/05/19 07:40:07;;;;;;;15.60;6.80;;;14.10;99.90;;;;;;5035131;28;20960;-82
2021/05/19 07:42:36;;;;;;;16.57;7.00;;;14.30;99.90;;;;;;5033353;28;20634;-83
2021/05/19 07:45:06;;;;;;;13.80;5.77;;;14.60;99.90;;;;;;5034483;28;20457;-82
2021/05/19 07:47:32;;;;;;;17.90;6.67;;;14.90;99.90;;;;;;5014710;28;20588;-82
2021/05/19 07:49:58;;;;;;;13.90;4.90;;;15.10;99.90;;;;;;5017009;28;21580;-79
2021/05/19 07:52:25;;;;;;;17.40;4.70;;;15.80;99.90;;;;;;5032810;28;20445;-81
2021/05/19 07:54:51;;;;;;;14.03;4.43;;;16.20;99.90;;;;;;5034295;28;20445;-83
2021/05/19 07:57:22;;;;;;;17.23;5.00;;;16.60;99.90;;;;;;5032358;28;20554;-80
2021/05/19 07:59:54;;;;;;;17.67;4.27;;;16.30;99.90;;;;;;5034953;28;20444;-83
2021/05/19 08:02:20;;;;;;;14.67;3.83;;;16.30;99.90;;;;;;5034536;28;20465;-81
2021/05/19 08:04:46;;;;;;;16.77;4.50;;;16.10;99.90;;;;;;5034642;28;20560;-79
2021/05/19 08:07:13;;;;;;;17.50;5.63;;;16.20;99.90;;;;;;5035112;28;20928;-82
2021/05/19 08:09:39;;;;;;;16.73;4.10;;;16.00;99.90;;;;;;5030136;28;20455;-81
2021/05/19 08:12:06;;;;;;;14.80;3.90;;;16.10;99.90;;;;;;5034079;28;20433;-82
2021/05/19 08:14:33;;;;;;;15.90;3.20;;;16.30;99.90;;;;;;5038782;28;20507;-82
2021/05/19 08:17:00;;;;;;;12.97;3.23;;;16.80;99.90;;;;;;5038152;28;20855;-81
2021/05/19 08:19:26;;;;;;;17.57;3.70;;;17.40;99.90;;;;;;5038239;28;20536;-82
2021/05/19 08:21:52;;;;;;;16.50;4.17;;;18.00;99.90;;;;;;5038404;28;20449;-82
2021/05/19 08:24:19;;;;;;;17.63;3.50;;;18.00;99.90;;;;;;5028654;28;21011;-81
2021/05/19 08:26:45;;;;;;;20.67;4.60;;;17.70;99.90;;;;;;5032499;28;20479;-82
2021/05/19 08:29:11;;;;;;;23.83;4.17;;;17.70;99.90;;;;;;5033592;28;20453;-82
2021/05/19 08:31:39;;;;;;;196.27;180.57;;;18.20;99.90;;;;;;5038124;28;20453;-83
2021/05/19 08:34:05;;;;;;;515.13;485.20;;;18.40;99.90;;;;;;5030103;28;20537;-83
2021/05/19 08:36:32;;;;;;;451.90;420.43;;;18.30;99.90;;;;;;5037338;28;20477;-83
2021/05/19 08:38:59;;;;;;;1999.90;999.90;;;18.90;99.90;;;;;;5028914;28;21007;-84
2021/05/19 08:41:25;;;;;;;244.40;213.20;;;19.60;99.90;;;;;;5034055;28;20457;-81
2021/05/19 08:43:52;;;;;;;719.60;664.00;;;19.80;99.90;;;;;;5036998;28;20480;-81
2021/05/19 08:46:18;;;;;;;156.23;141.93;;;19.10;99.90;;;;;;5037709;28;20532;-83
2021/05/19 08:48:53;;;;;;;189.37;137.57;;;19.40;99.90;;;;;;5038120;28;20449;-83
2021/05/19 08:51:19;;;;;;;18.47;3.17;;;18.80;99.90;;;;;;5037616;28;20456;-83
2021/05/19 08:53:46;;;;;;;164.23;147.87;;;19.40;99.90;;;;;;5036556;28;20433;-83
2021/05/19 08:56:14;;;;;;;82.00;74.10;;;20.20;99.90;;;;;;5031065;28;20487;-82
2021/05/19 08:58:41;;;;;;;15.00;2.97;;;19.80;99.90;;;;;;5021695;28;20453;-83
2021/05/19 09:01:07;;;;;;;93.27;85.23;;;19.10;99.90;;;;;;5038350;28;20461;-83
2021/05/19 09:03:34;;;;;;;14.60;3.50;;;18.90;99.90;;;;;;5036755;28;20565;-81
2021/05/19 09:06:07;;;;;;;17.43;5.07;;;19.40;99.90;;;;;;5020759;28;20462;-80
2021/05/19 09:08:37;;;;;;;13.13;2.70;;;19.60;99.90;;;;;;5037644;28;20937;-82
2021/05/19 09:11:05;;;;;;;12.50;2.93;;;19.90;99.90;;;;;;5037064;28;20540;-80
2021/05/19 09:13:35;;;;;;;12.43;3.07;;;20.00;99.90;;;;;;5024437;28;20873;-82
2021/05/19 09:16:04;;;;;;;10.53;2.90;;;20.10;99.90;;;;;;5033737;28;20501;-83
2021/05/19 09:18:47;;;;;;;9.00;2.00;;;20.50;99.90;;;;;;5033660;28;20506;-84
2021/05/19 09:21:32;;;;;;;16.43;3.83;;;20.60;99.90;;;;;;5035964;28;20465;-82
2021/05/19 09:23:59;;;;;;;9.53;2.63;;;20.60;99.90;;;;;;5036151;28;20492;-82
2021/05/19 09:26:26;;;;;;;11.93;2.23;;;20.60;99.90;;;;;;5035448;28;20476;-81
2021/05/19 09:28:52;;;;;;;13.30;2.43;;;20.20;99.90;;;;;;5036759;28;20523;-82
2021/05/19 09:31:23;;;;;;;10.60;2.60;;;19.60;99.90;;;;;;5036659;28;20457;-82
2021/05/19 09:33:51;;;;;;;11.60;2.60;;;19.00;99.90;;;;;;5037356;28;20452;-80
2021/05/19 09:36:19;;;;;;;12.80;2.10;;;18.50;99.90;;;;;;5034565;28;20853;-82
2021/05/19 09:38:49;;;;;;;114.53;106.00;;;18.10;99.90;;;;;;5017871;28;20481;-82
2021/05/19 09:41:21;;;;;;;300.80;278.60;;;17.20;99.90;;;;;;5033078;28;20526;-79
2021/05/19 09:43:48;;;;;;;37.83;33.63;;;17.40;99.90;;;;;;5024034;28;20491;-81
2021/05/19 09:46:18;;;;;;;20.10;2.40;;;17.40;99.90;;;;;;5036785;28;20483;-81
2021/05/19 09:48:45;;;;;;;16.00;3.00;;;17.40;99.90;;;;;;5037274;28;20453;-81
2021/05/19 09:51:43;;;;;;;15.83;2.20;;;18.00;99.90;;;;;;5036418;28;20521;-81
2021/05/19 09:54:25;;;;;;;11.97;2.13;;;19.00;99.90;;;;;;5035910;28;20453;-81
2021/05/19 09:56:54;;;;;;;10.13;2.20;;;20.00;99.90;;;;;;5047558;23;20484;-82
2021/05/19 09:59:21;;;;;;;8.60;1.83;;;19.40;99.90;;;;;;5034651;28;20441;-83
2021/05/19 10:01:49;;;;;;;8.27;1.93;;;19.40;99.90;;;;;;5035315;28;20515;-83
2021/05/19 10:04:15;;;;;;;10.90;2.27;;;20.50;99.90;;;;;;5037734;28;20541;-84
2021/05/19 10:06:43;;;;;;;11.53;2.57;;;19.70;99.90;;;;;;5036863;28;20496;-83
2021/05/19 10:09:09;;;;;;;9.23;1.43;;;19.50;99.90;;;;;;5041705;28;20453;-83
2021/05/19 10:11:37;;;;;;;10.60;1.70;;;19.40;99.90;;;;;;5041442;28;20516;-83
2021/05/19 10:14:04;;;;;;;9.80;1.40;;;18.60;99.90;;;;;;5041426;28;20471;-83
2021/05/19 10:16:31;;;;;;;10.23;1.27;;;18.80;99.90;;;;;;5040985;28;20449;-83
2021/05/19 10:19:01;;;;;;;9.40;3.00;;;18.60;99.90;;;;;;5041469;28;20463;-82
2021/05/19 10:21:31;;;;;;;8.10;1.77;;;19.20;99.90;;;;;;5054350;28;20453;-82
2021/05/19 10:24:03;;;;;;;8.80;1.50;;;20.10;99.90;;;;;;5051436;28;20500;-80
2021/05/19 10:26:32;;;;;;;7.43;1.70;;;20.70;99.90;;;;;;5050399;28;20425;-82
2021/05/19 10:29:00;;;;;;;11.13;1.77;;;21.00;99.90;;;;;;5051522;28;20451;-83
2021/05/19 10:31:29;;;;;;;8.60;1.67;;;20.50;99.90;;;;;;5043341;28;20548;-82
2021/05/19 10:33:56;;;;;;;6.83;1.30;;;20.00;99.90;;;;;;5045183;28;20953;-83
2021/05/19 10:36:41;;;;;;;7.70;1.63;;;20.90;99.90;;;;;;5044363;28;20452;-84
2021/05/19 10:39:21;;;;;;;11.53;2.03;;;21.40;99.90;;;;;;5042779;28;20577;-82
2021/05/19 10:41:49;;;;;;;9.83;1.40;;;21.50;99.90;;;;;;5043246;28;20512;-81
2021/05/19 10:44:17;;;;;;;7.10;1.27;;;21.00;99.90;;;;;;5044198;28;20996;-82
2021/05/19 10:46:49;;;;;;;9.47;1.63;;;20.00;99.90;;;;;;5045203;28;20484;-84
2021/05/19 10:49:17;;;;;;;9.73;1.80;;;20.00;99.90;;;;;;5043580;28;20449;-84
2021/05/19 10:51:47;;;;;;;10.00;2.20;;;20.80;99.90;;;;;;5044031;28;20457;-84
2021/05/19 10:57:19;;;;;;;9.80;1.43;;;24.00;99.90;;;;;;5045278;28;20483;-82
2021/05/19 11:00:11;;;;;;;9.17;1.50;;;23.50;99.90;;;;;;5026869;28;20469;-82
2021/05/19 11:03:12;;;;;;;10.23;1.20;;;25.20;99.90;;;;;;5041567;28;20452;-82
2021/05/19 11:06:00;;;;;;;11.40;1.40;;;26.50;97.60;;;;;;5043495;28;20830;-83
2021/05/19 11:08:28;;;;;;;12.27;1.80;;;26.00;95.30;;;;;;5042523;28;20473;-80
2021/05/19 11:11:22;;;;;;;16.97;1.57;;;27.50;93.80;;;;;;5043550;28;20460;-82
2021/05/19 11:14:17;;;;;;;13.03;1.50;;;28.70;86.10;;;;;;5043742;28;20452;-82
2021/05/19 11:19:39;;;;;;;11.90;1.33;;;25.30;79.40;;;;;;5044388;28;20453;-82
2021/05/19 11:22:11;;;;;;;13.07;1.80;;;23.70;83.60;;;;;;5044112;28;20480;-81
2021/05/19 11:24:56;;;;;;;12.07;1.90;;;22.90;84.10;;;;;;5047191;28;21085;-81
2021/05/19 11:27:25;;;;;;;14.10;1.73;;;21.90;89.80;;;;;;5044477;28;20481;-82
2021/05/19 11:29:52;;;;;;;9.67;1.87;;;21.20;91.30;;;;;;5045249;28;20457;-82
2021/05/19 11:32:21;;;;;;;8.93;1.40;;;20.60;92.50;;;;;;5044294;28;20459;-83
2021/05/19 11:34:48;;;;;;;14.10;1.30;;;20.90;99.90;;;;;;5046265;28;20499;-82
2021/05/19 11:37:16;;;;;;;12.90;1.70;;;23.30;94.20;;;;;;5044751;28;20460;-82
2021/05/19 11:39:45;;;;;;;15.73;1.53;;;25.40;92.40;;;;;;5044871;28;20457;-85
2021/05/19 11:42:27;;;;;;;15.60;1.20;;;27.50;82.40;;;;;;5043317;28;20457;-82
2021/05/19 11:44:56;;;;;;;15.60;2.00;;;;;;;;;;5044884;28;20509;-85
2021/05/19 11:47:34;;;;;;;11.60;1.30;;;31.50;69.50;;;;;;5043373;28;20480;-84
2021/05/19 11:50:23;;;;;;;10.47;1.60;;;31.30;63.30;;;;;;5042059;28;20494;-85
2021/05/19 11:52:54;;;;;;;12.00;1.80;;;32.10;59.20;;;;;;5043242;28;20447;-84
2021/05/19 11:55:26;;;;;;;11.23;2.23;;;30.90;59.40;;;;;;5048568;28;20432;-85
2021/05/19 11:58:02;;;;;;;10.00;1.53;;;31.80;57.70;;;;;;5046784;28;20480;-83
2021/05/19 12:00:31;;;;;;;9.73;1.20;;;31.40;58.10;;;;;;5045068;28;20468;-82
2021/05/19 12:02:59;;;;;;;12.10;1.77;;;32.60;57.50;;;;;;5040200;28;20453;-82
2021/05/19 12:05:25;;;;;;;9.40;1.33;;;33.90;57.50;;;;;;5041261;28;20459;-84
2021/05/19 12:07:52;;;;;;;9.03;1.43;;;35.00;57.80;;;;;;5042022;28;20475;-82
2021/05/19 12:10:19;;;;;;;10.47;1.77;;;32.70;57.70;;;;;;5042663;28;20480;-83
2021/05/19 12:12:53;;;;;;;13.50;1.63;;;31.80;56.60;;;;;;5044605;28;20463;-83
2021/05/19 12:15:21;;;;;;;13.80;2.00;;;30.60;57.30;;;;;;5041403;28;20468;-83
2021/05/19 12:17:47;;;;;;;14.77;2.30;;;28.50;56.50;;;;;;5043193;28;20473;-81
2021/05/19 12:20:22;;;;;;;21.00;2.30;;;27.10;57.70;;;;;;5046018;28;20437;-82
2021/05/19 12:22:49;;;;;;;15.17;2.03;;;25.40;59.80;;;;;;5046244;28;20516;-83
2021/05/19 12:25:15;;;;;;;11.13;1.90;;;24.70;66.00;;;;;;5045852;28;20996;-83
2021/05/19 12:27:42;;;;;;;14.50;2.07;;;24.30;74.40;;;;;;5044090;28;20476;-82
2021/05/19 12:30:10;;;;;;;14.27;2.27;;;24.70;72.20;;;;;;5042774;28;20453;-80
2021/05/19 12:32:37;;;;;;;13.20;1.73;;;25.20;71.40;;;;;;5040156;28;20488;-81
2021/05/19 12:35:07;;;;;;;18.43;2.37;;;24.80;67.00;;;;;;5045330;28;20527;-83
2021/05/19 12:37:40;;;;;;;10.90;1.60;;;24.10;65.40;;;;;;5047049;28;20547;-80
2021/05/19 12:40:08;;;;;;;12.33;1.70;;;22.70;70.40;;;;;;5050652;28;20918;-82
2021/05/19 12:42:41;;;;;;;12.13;2.17;;;22.00;70.00;;;;;;5045941;28;20485;-82
2021/05/19 12:45:09;;;;;;;14.47;2.20;;;21.20;74.00;;;;;;5044722;28;20511;-83
2021/05/19 12:47:36;;;;;;;9.93;2.03;;;19.90;74.50;;;;;;5042406;28;20472;-82
2021/05/19 12:50:05;;;;;;;13.07;3.43;;;18.90;81.00;;;;;;5046669;28;20475;-83